createdAt,value
2018-12-31T00:04:14.453Z,101497.78
2018-12-31T00:09:19.546Z,101488.90
2018-12-31T00:14:24.677Z,101495.59
2018-12-31T00:19:39.840Z,101480.28
2018-12-31T00:24:44.996Z,101473.16
2018-12-31T00:29:50.189Z,101477.91
2018-12-31T00:34:55.250Z,101477.02
2018-12-31T00:40:02.434Z,101478.56
2018-12-31T00:45:07.273Z,101497.42
2018-12-31T00:50:12.396Z,101499.77
2018-12-31T00:55:17.496Z,101498.37
2018-12-31T01:00:22.810Z,101510.03
2018-12-31T01:05:27.888Z,101502.17
2018-12-31T01:10:32.974Z,101504.58
2018-12-31T01:15:38.078Z,101506.13
2018-12-31T01:20:43.124Z,101509.38
2018-12-31T01:25:48.202Z,101514.78
2018-12-31T01:30:53.603Z,101508.05
2018-12-31T01:35:58.680Z,101521.13
2018-12-31T01:41:03.735Z,101522.73
2018-12-31T01:46:09.101Z,101514.52
2018-12-31T01:51:14.197Z,101512.17
2018-12-31T01:56:19.281Z,101505.58
2018-12-31T02:01:24.741Z,101524.86
2018-12-31T02:06:29.747Z,101509.23
2018-12-31T02:11:34.807Z,101505.77
2018-12-31T02:16:39.795Z,101504.12
2018-12-31T02:21:49.952Z,101514.88
2018-12-31T02:26:55.305Z,101527.45
2018-12-31T02:32:00.371Z,101530.39
2018-12-31T02:37:05.376Z,101525.53
2018-12-31T02:42:10.551Z,101548.14
2018-12-31T02:47:15.593Z,101540.52
2018-12-31T02:52:20.598Z,101543.62
2018-12-31T02:57:25.643Z,101545.50
2018-12-31T03:02:30.686Z,101527.77
2018-12-31T03:07:35.732Z,101524.17
2018-12-31T03:12:40.898Z,101530.41
2018-12-31T03:17:45.907Z,101526.45
2018-12-31T03:22:51.035Z,101529.75
2018-12-31T03:27:56.409Z,101525.34
2018-12-31T03:33:02.081Z,101521.39
2018-12-31T03:38:07.149Z,101534.66
2018-12-31T03:43:12.709Z,101522.53
2018-12-31T03:48:18.020Z,101527.41
2018-12-31T03:53:23.017Z,101543.74
2018-12-31T03:58:28.012Z,101543.48
2018-12-31T04:03:33.014Z,101529.75
2018-12-31T04:08:38.492Z,101549.55
2018-12-31T04:13:43.592Z,101548.53
2018-12-31T04:18:48.637Z,101549.32
2018-12-31T04:23:54.633Z,101542.86
2018-12-31T04:29:00.244Z,101547.51
2018-12-31T04:34:05.289Z,101555.55
2018-12-31T04:39:10.312Z,101540.82
2018-12-31T04:44:15.430Z,101549.34
2018-12-31T04:49:23.823Z,101545.08
2018-12-31T04:54:28.953Z,101552.28
2018-12-31T04:59:42.024Z,101550.06
2018-12-31T05:04:51.681Z,101546.54
2018-12-31T05:09:56.851Z,101548.31
2018-12-31T05:15:02.581Z,101540.33
2018-12-31T05:20:07.702Z,101547.49
2018-12-31T05:25:12.717Z,101556.73
2018-12-31T05:30:17.754Z,101558.87
2018-12-31T05:35:23.208Z,101567.16
2018-12-31T05:40:28.358Z,101574.79
2018-12-31T05:45:33.411Z,101572.52
2018-12-31T05:50:38.521Z,101564.38
2018-12-31T05:55:43.639Z,101568.33
2018-12-31T06:00:49.018Z,101563.47
2018-12-31T06:05:54.138Z,101567.44
2018-12-31T06:10:59.539Z,101576.48
2018-12-31T06:16:04.598Z,101580.70
2018-12-31T06:21:09.836Z,101575.95
2018-12-31T06:26:14.978Z,101580.14
2018-12-31T06:31:20.468Z,101569.80
2018-12-31T06:36:25.470Z,101574.72
2018-12-31T06:41:30.472Z,101572.50
2018-12-31T06:46:35.474Z,101581.81
2018-12-31T06:51:40.581Z,101602.44
2018-12-31T06:56:46.000Z,101609.55
2018-12-31T07:01:51.918Z,101618.99
2018-12-31T07:06:56.941Z,101629.55
2018-12-31T07:12:01.947Z,101636.38
2018-12-31T07:17:07.120Z,101643.28
2018-12-31T07:22:12.441Z,101637.63
2018-12-31T07:27:17.418Z,101628.30
2018-12-31T07:32:22.485Z,101627.44
2018-12-31T07:37:27.576Z,101616.64
2018-12-31T07:42:32.815Z,101616.63
2018-12-31T07:47:37.877Z,101624.78
2018-12-31T07:52:43.187Z,101627.17
2018-12-31T07:57:48.208Z,101633.05
2018-12-31T08:02:53.247Z,101639.97
2018-12-31T08:07:58.313Z,101631.75
2018-12-31T08:13:03.375Z,101641.72
2018-12-31T08:18:08.563Z,101644.81
2018-12-31T08:23:13.634Z,101646.59
2018-12-31T08:28:18.719Z,101650.74
2018-12-31T08:33:23.776Z,101659.20
2018-12-31T08:38:28.787Z,101660.36
2018-12-31T08:43:33.946Z,101656.84
2018-12-31T08:48:39.067Z,101658.62
2018-12-31T08:53:44.575Z,101664.84
2018-12-31T08:58:49.619Z,101662.85
2018-12-31T09:03:54.619Z,101662.28
2018-12-31T09:08:59.752Z,101661.34
2018-12-31T09:14:04.969Z,101661.34
2018-12-31T09:19:10.856Z,101661.83
2018-12-31T09:24:15.867Z,101660.36
2018-12-31T09:29:26.039Z,101661.98
2018-12-31T09:34:31.394Z,101651.11
2018-12-31T09:39:42.055Z,101658.54
2018-12-31T09:44:47.077Z,101655.74
2018-12-31T09:49:52.071Z,101653.70
2018-12-31T09:54:57.119Z,101630.42
2018-12-31T10:00:02.452Z,101639.31
2018-12-31T10:05:07.672Z,101640.16
2018-12-31T10:10:12.795Z,101642.20
2018-12-31T10:15:17.953Z,101640.16
2018-12-31T10:20:23.227Z,101643.47
2018-12-31T10:25:28.721Z,101638.45
2018-12-31T10:30:45.894Z,101637.72
2018-12-31T10:35:51.053Z,101642.55
2018-12-31T10:40:56.223Z,101636.84
2018-12-31T10:46:01.487Z,101633.23
2018-12-31T10:51:07.041Z,101625.40
2018-12-31T10:56:12.176Z,101625.23
2018-12-31T11:01:20.325Z,101613.22
2018-12-31T11:06:26.399Z,101611.59
2018-12-31T11:11:31.551Z,101600.27
2018-12-31T11:16:36.761Z,101593.59
2018-12-31T11:21:42.644Z,101595.55
2018-12-31T11:26:50.894Z,101593.58
2018-12-31T11:31:56.601Z,101599.53
2018-12-31T11:37:01.863Z,101601.32
2018-12-31T11:42:07.073Z,101588.17
2018-12-31T11:47:12.659Z,101584.33
2018-12-31T11:52:19.138Z,101579.89
2018-12-31T11:57:24.377Z,101575.88
2018-12-31T12:02:29.767Z,101571.06
2018-12-31T12:07:34.977Z,101571.42
2018-12-31T12:12:40.347Z,101577.50
2018-12-31T12:17:45.701Z,101577.67
2018-12-31T12:22:51.193Z,101570.14
2018-12-31T12:27:56.237Z,101574.00
2018-12-31T12:33:01.633Z,101576.48
2018-12-31T12:38:06.754Z,101566.61
2018-12-31T12:43:12.079Z,101569.80
2018-12-31T12:48:17.146Z,101564.06
2018-12-31T12:53:22.341Z,101565.03
2018-12-31T12:58:27.581Z,101568.20
2018-12-31T13:03:32.742Z,101565.19
2018-12-31T13:08:37.873Z,101569.61
2018-12-31T13:13:42.885Z,101566.67
2018-12-31T13:18:48.021Z,101559.05
2018-12-31T13:23:53.171Z,101555.42
2018-12-31T13:28:58.356Z,101561.34
2018-12-31T13:34:03.577Z,101559.80
2018-12-31T13:39:08.701Z,101567.84
2018-12-31T13:44:13.738Z,101556.52
2018-12-31T13:49:18.814Z,101565.49
2018-12-31T13:54:24.939Z,101549.15
2018-12-31T13:59:30.137Z,101558.00
2018-12-31T14:04:35.241Z,101564.56
2018-12-31T14:09:41.156Z,101564.56
2018-12-31T14:14:46.248Z,101561.36
2018-12-31T14:19:51.394Z,101577.30
2018-12-31T14:24:56.501Z,101583.44
2018-12-31T14:30:02.987Z,101600.69
2018-12-31T14:35:08.269Z,101599.37
2018-12-31T14:40:13.386Z,101599.91
2018-12-31T14:45:18.680Z,101601.83
2018-12-31T14:50:24.230Z,101597.88
2018-12-31T14:55:29.463Z,101597.93
2018-12-31T15:00:35.351Z,101595.09
2018-12-31T15:05:40.439Z,101594.97
2018-12-31T15:10:45.491Z,101595.95
2018-12-31T15:15:50.809Z,101585.42
2018-12-31T15:20:55.975Z,101594.84
2018-12-31T15:26:01.128Z,101597.84
2018-12-31T15:31:07.411Z,101602.38
2018-12-31T15:36:12.593Z,101594.31
2018-12-31T15:41:17.723Z,101588.00
2018-12-31T15:46:22.827Z,101578.12
2018-12-31T15:51:27.921Z,101582.75
2018-12-31T15:56:33.086Z,101575.55
2018-12-31T16:01:38.262Z,101573.67
2018-12-31T16:06:43.585Z,101581.59
2018-12-31T16:11:48.815Z,101576.31
2018-12-31T16:16:54.105Z,101569.47
2018-12-31T16:21:59.213Z,101564.18
2018-12-31T16:27:04.347Z,101573.14
2018-12-31T16:32:09.533Z,101572.17
2018-12-31T16:37:14.995Z,101570.13
2018-12-31T16:42:20.334Z,101572.77
2018-12-31T16:47:26.411Z,101568.27
2018-12-31T16:52:31.661Z,101562.26
2018-12-31T16:57:36.827Z,101552.25
2018-12-31T17:02:41.921Z,101542.20
2018-12-31T17:07:48.813Z,101552.07
2018-12-31T17:12:54.134Z,101553.92
2018-12-31T17:17:59.591Z,101555.31
2018-12-31T17:23:05.466Z,101560.13
2018-12-31T17:28:22.141Z,101552.79
2018-12-31T17:33:29.175Z,101553.28
2018-12-31T17:38:34.728Z,101548.52
2018-12-31T17:43:42.713Z,101546.53
2018-12-31T17:48:55.897Z,101555.43
2018-12-31T17:54:01.319Z,101562.16
2018-12-31T17:59:06.614Z,101559.94
2018-12-31T18:04:11.995Z,101566.20
2018-12-31T18:09:17.055Z,101554.47
2018-12-31T18:14:22.354Z,101567.94
2018-12-31T18:19:27.403Z,101565.23
2018-12-31T18:24:33.229Z,101569.45
2018-12-31T18:29:38.611Z,101567.05
2018-12-31T18:34:43.697Z,101562.52
2018-12-31T18:39:49.636Z,101546.72
2018-12-31T18:44:55.088Z,101548.03
2018-12-31T18:50:05.921Z,101550.16
2018-12-31T18:55:11.888Z,101554.85
2018-12-31T19:00:17.941Z,101564.99
2018-12-31T19:05:23.081Z,101559.53
2018-12-31T19:10:29.417Z,101553.65
2018-12-31T19:15:34.856Z,101553.21
2018-12-31T19:20:39.930Z,101556.88
2018-12-31T19:25:45.192Z,101547.86
2018-12-31T19:30:53.239Z,101554.23
2018-12-31T19:35:59.043Z,101551.89
2018-12-31T19:41:04.122Z,101550.92
2018-12-31T19:46:09.273Z,101535.84
2018-12-31T19:51:14.562Z,101540.11
2018-12-31T19:56:19.811Z,101537.55
2018-12-31T20:01:25.190Z,101542.08
2018-12-31T20:06:30.212Z,101538.41
2018-12-31T20:11:35.501Z,101526.20
2018-12-31T20:16:40.594Z,101522.77
2018-12-31T20:21:46.111Z,101530.41
2018-12-31T20:26:51.317Z,101528.20
2018-12-31T20:31:58.770Z,101524.53
2018-12-31T20:37:07.259Z,101520.03
2018-12-31T20:42:13.170Z,101528.29
2018-12-31T20:47:20.229Z,101532.02
2018-12-31T20:52:26.133Z,101534.38
2018-12-31T20:57:31.347Z,101528.11
2018-12-31T21:02:36.515Z,101528.91
2018-12-31T21:07:43.851Z,101518.85
2018-12-31T21:12:51.039Z,101523.35
2018-12-31T21:17:56.535Z,101515.13
2018-12-31T21:23:01.891Z,101501.36
2018-12-31T21:28:07.059Z,101507.48
2018-12-31T21:33:12.198Z,101508.80
2018-12-31T21:38:17.346Z,101505.69
2018-12-31T21:43:22.523Z,101493.54
2018-12-31T21:48:27.709Z,101489.28
2018-12-31T21:53:33.635Z,101482.72
2018-12-31T21:58:52.041Z,101479.78
2018-12-31T22:03:58.227Z,101473.86
2018-12-31T22:09:03.487Z,101474.16
2018-12-31T22:14:09.690Z,101456.38
2018-12-31T22:19:15.032Z,101455.05
2018-12-31T22:24:20.107Z,101453.83
2018-12-31T22:29:25.148Z,101438.48
2018-12-31T22:34:30.206Z,101435.06
2018-12-31T22:39:40.226Z,101436.98
2018-12-31T22:44:45.708Z,101428.56
2018-12-31T22:49:50.971Z,101422.23
2018-12-31T22:54:56.064Z,101425.91
2018-12-31T23:00:01.320Z,101416.75
2018-12-31T23:05:16.414Z,101417.86
2018-12-31T23:10:21.537Z,101415.77
2018-12-31T23:15:28.383Z,101402.30
2018-12-31T23:20:33.689Z,101385.91
2018-12-31T23:25:39.207Z,101372.44
2018-12-31T23:30:44.634Z,101365.53
2018-12-31T23:35:50.286Z,101353.66
2018-12-31T23:40:55.751Z,101364.50
2018-12-31T23:46:01.257Z,101348.33
2018-12-31T23:51:06.465Z,101349.36
2018-12-31T23:56:11.775Z,101343.37
